UKBB/KBP METAR and TAF weather

Enter ICAO airport designator
Station Type Date Time Source
UKBB METAR 2019/04/21 22:30 UTC NOAA

UKBB 212230Z 00000MPS CAVOK 02/M03 Q1024 R88/CLRD// NOSIG


Station Type Date Time Source
UKBB Decoded METAR 2019/04/21 22:30 UTC NOAA

Boryspil, Ukraine (UKBB) 50-20N 030-58E 122M
Apr 21, 2019 - 06:30 PM EDT / 2019.04.21 2230 UTC
Wind: Calm:0
Visibility: greater than 7 mile(s):0
Temperature: 35 F (2 C)
Dew Point: 26 F (-3 C)
Relative Humidity: 69%
Pressure (altimeter): 30.24 in. Hg (1024 hPa)
ob: UKBB 212230Z 00000MPS CAVOK 02/M03 Q1024 R88/CLRD// NOSIG
cycle: 22

Station Type Date Time Source
UKBB TAF 2019/04/21 18:25 UTC NOAA

TAF UKBB 211702Z 2118/2218 12003G08MPS 9999 BKN020 TX15/2213Z TN02/2203Z
TEMPO 2120/2206 2000 BR SCT005
BECMG 2206/2208 12005G10MPS

Example: see airport list